PGT10BU LTBS-LTFJ
Flight info
| Callsign | PGT10BU |
|---|---|
| Flight time | 0h 53m |
| Altitude | 36000 |
| Route | RIVBU DCT BAGLU DCT ATGIT UT30 SIVKU UL610 APSER/N0443F380 UL610 ETAMP |
| Aircraft | A320/M-SDE3FGHIRWY/LB1 |
Departure
| Time | 2026-04-27 13:28 |
|---|---|
| Airport | Dalaman International Airport (LTBS) |
Arrival
| Time | 2026-04-27 14:22 |
|---|---|
| Airport | Istanbul Sabiha Gökçen International Airport (LTFJ) |
| Time | Latitude | Longitude | Altitude | Speed | Heading |
|---|---|---|---|---|---|
| 2026-04-27 13:13 | 36.72150 | 28.79016 | 12 ft | 0 kts | 285° |
| 2026-04-27 13:20 | 36.72145 | 28.79038 | 12 ft | 4 kts | 290° |
| 2026-04-27 13:20 | 36.72133 | 28.79068 | 13 ft | 4 kts | 308° |
| 2026-04-27 13:21 | 36.72114 | 28.79087 | 13 ft | 4 kts | 0° |
| 2026-04-27 13:21 | 36.72104 | 28.79086 | 12 ft | 1 kts | 15° |
| 2026-04-27 13:21 | 36.72103 | 28.79086 | 12 ft | 0 kts | 15° |
| 2026-04-27 13:23 | 36.72132 | 28.79095 | 12 ft | 6 kts | 15° |
| 2026-04-27 13:23 | 36.72177 | 28.79111 | 12 ft | 9 kts | 15° |
| 2026-04-27 13:23 | 36.72235 | 28.79130 | 12 ft | 8 kts | 15° |
| 2026-04-27 13:24 | 36.72286 | 28.79148 | 12 ft | 7 kts | 20° |
| 2026-04-27 13:24 | 36.72301 | 28.79195 | 14 ft | 6 kts | 90° |
| 2026-04-27 13:24 | 36.72292 | 28.79255 | 12 ft | 7 kts | 104° |
| 2026-04-27 13:24 | 36.72277 | 28.79327 | 12 ft | 8 kts | 101° |
| 2026-04-27 13:25 | 36.72304 | 28.79376 | 12 ft | 7 kts | 22° |
| 2026-04-27 13:25 | 36.72348 | 28.79391 | 12 ft | 7 kts | 14° |
| 2026-04-27 13:25 | 36.72396 | 28.79407 | 12 ft | 7 kts | 15° |
| 2026-04-27 13:25 | 36.72449 | 28.79425 | 12 ft | 8 kts | 15° |
| 2026-04-27 13:26 | 36.72521 | 28.79450 | 12 ft | 13 kts | 15° |
| 2026-04-27 13:26 | 36.72599 | 28.79476 | 12 ft | 10 kts | 15° |
| 2026-04-27 13:26 | 36.72644 | 28.79527 | 12 ft | 8 kts | 71° |
| 2026-04-27 13:26 | 36.72634 | 28.79593 | 12 ft | 7 kts | 114° |
| 2026-04-27 13:27 | 36.72596 | 28.79650 | 12 ft | 9 kts | 146° |
| 2026-04-27 13:27 | 36.72534 | 28.79665 | 12 ft | 10 kts | 190° |
| 2026-04-27 13:27 | 36.72439 | 28.79635 | 12 ft | 32 kts | 195° |
| 2026-04-27 13:27 | 36.71992 | 28.79483 | 12 ft | 100 kts | 195° |
| 2026-04-27 13:28 | 36.71141 | 28.79197 | 15 ft | 151 kts | 195° |
| 2026-04-27 13:28 | 36.70062 | 28.78846 | 484 ft | 162 kts | 194° |
| 2026-04-27 13:28 | 36.68959 | 28.78498 | 1206 ft | 164 kts | 195° |
| 2026-04-27 13:28 | 36.67855 | 28.78127 | 1888 ft | 167 kts | 197° |
| 2026-04-27 13:29 | 36.66671 | 28.77709 | 2260 ft | 188 kts | 197° |
| 2026-04-27 13:29 | 36.65338 | 28.77241 | 2539 ft | 212 kts | 197° |
| 2026-04-27 13:29 | 36.63838 | 28.76719 | 2921 ft | 236 kts | 197° |
| 2026-04-27 13:29 | 36.62176 | 28.76146 | 3370 ft | 258 kts | 197° |
| 2026-04-27 13:30 | 36.60410 | 28.75539 | 4139 ft | 267 kts | 196° |
| 2026-04-27 13:30 | 36.58585 | 28.75023 | 5007 ft | 272 kts | 184° |
| 2026-04-27 13:30 | 36.56717 | 28.75413 | 5857 ft | 278 kts | 155° |
| 2026-04-27 13:30 | 36.55187 | 28.76873 | 6717 ft | 282 kts | 127° |
| 2026-04-27 13:31 | 36.54344 | 28.79067 | 7565 ft | 285 kts | 105° |
| 2026-04-27 13:31 | 36.53816 | 28.81446 | 8435 ft | 287 kts | 105° |
| 2026-04-27 13:31 | 36.53291 | 28.83854 | 9304 ft | 290 kts | 104° |
| 2026-04-27 13:31 | 36.52760 | 28.86295 | 10128 ft | 294 kts | 104° |
| 2026-04-27 13:32 | 36.52218 | 28.88785 | 10703 ft | 307 kts | 104° |
| 2026-04-27 13:32 | 36.51940 | 28.91468 | 11160 ft | 319 kts | 84° |
| 2026-04-27 13:32 | 36.52523 | 28.94126 | 11849 ft | 322 kts | 61° |
| 2026-04-27 13:32 | 36.53915 | 28.96342 | 12298 ft | 335 kts | 38° |
| 2026-04-27 13:33 | 36.56006 | 28.97668 | 12796 ft | 343 kts | 15° |
| 2026-04-27 13:33 | 36.58329 | 28.98461 | 13495 ft | 348 kts | 14° |
| 2026-04-27 13:33 | 36.60675 | 28.99254 | 14180 ft | 351 kts | 14° |
| 2026-04-27 13:33 | 36.63042 | 29.00055 | 14819 ft | 354 kts | 14° |
| 2026-04-27 13:34 | 36.65435 | 29.00869 | 15468 ft | 358 kts | 14° |
| 2026-04-27 13:34 | 36.67848 | 29.01694 | 16122 ft | 361 kts | 14° |
| 2026-04-27 13:34 | 36.70246 | 29.02518 | 16747 ft | 364 kts | 14° |
| 2026-04-27 13:34 | 36.72704 | 29.03366 | 17385 ft | 368 kts | 14° |
| 2026-04-27 13:35 | 36.75179 | 29.04225 | 18029 ft | 371 kts | 14° |
| 2026-04-27 13:35 | 36.77681 | 29.05092 | 18603 ft | 375 kts | 14° |
| 2026-04-27 13:35 | 36.80200 | 29.05962 | 19142 ft | 377 kts | 14° |
| 2026-04-27 13:35 | 36.82743 | 29.06837 | 19699 ft | 381 kts | 14° |
| 2026-04-27 13:36 | 36.85304 | 29.07719 | 20236 ft | 383 kts | 14° |
| 2026-04-27 13:36 | 36.87887 | 29.08609 | 20754 ft | 386 kts | 14° |
| 2026-04-27 13:36 | 36.90484 | 29.09508 | 21272 ft | 389 kts | 14° |
| 2026-04-27 13:36 | 36.93107 | 29.10415 | 21797 ft | 392 kts | 14° |
| 2026-04-27 13:37 | 36.95742 | 29.11354 | 22303 ft | 396 kts | 17° |
| 2026-04-27 13:37 | 36.98307 | 29.12658 | 22794 ft | 400 kts | 22° |
| 2026-04-27 13:37 | 37.00875 | 29.14049 | 23267 ft | 403 kts | 22° |
| 2026-04-27 13:37 | 37.03460 | 29.15445 | 23714 ft | 406 kts | 22° |
| 2026-04-27 13:38 | 37.06062 | 29.16849 | 24101 ft | 409 kts | 22° |
| 2026-04-27 13:38 | 37.08689 | 29.18264 | 24496 ft | 412 kts | 22° |
| 2026-04-27 13:38 | 37.11329 | 29.19685 | 24874 ft | 414 kts | 21° |
| 2026-04-27 13:38 | 37.13982 | 29.21114 | 25265 ft | 417 kts | 22° |
| 2026-04-27 13:39 | 37.16654 | 29.22555 | 25660 ft | 419 kts | 22° |
| 2026-04-27 13:39 | 37.19342 | 29.24007 | 26053 ft | 421 kts | 21° |
| 2026-04-27 13:39 | 37.22043 | 29.25465 | 26437 ft | 424 kts | 21° |
| 2026-04-27 13:39 | 37.24755 | 29.26935 | 26821 ft | 426 kts | 22° |
| 2026-04-27 13:40 | 37.27482 | 29.28417 | 27182 ft | 428 kts | 22° |
| 2026-04-27 13:40 | 37.30233 | 29.29879 | 27554 ft | 430 kts | 18° |
| 2026-04-27 13:40 | 37.33109 | 29.30899 | 27906 ft | 430 kts | 9° |
| 2026-04-27 13:40 | 37.36080 | 29.31322 | 28265 ft | 430 kts | 360° |
| 2026-04-27 13:41 | 37.39080 | 29.31369 | 28615 ft | 432 kts | 359° |
| 2026-04-27 13:41 | 37.42091 | 29.31413 | 28973 ft | 434 kts | 359° |
| 2026-04-27 13:41 | 37.45118 | 29.31459 | 29297 ft | 436 kts | 359° |
| 2026-04-27 13:41 | 37.48115 | 29.31507 | 29634 ft | 438 kts | 359° |
| 2026-04-27 13:42 | 37.51171 | 29.31563 | 29955 ft | 440 kts | 359° |
| 2026-04-27 13:42 | 37.54238 | 29.31621 | 30252 ft | 442 kts | 359° |
| 2026-04-27 13:42 | 37.57316 | 29.31679 | 30521 ft | 443 kts | 359° |
| 2026-04-27 13:42 | 37.60405 | 29.31734 | 30775 ft | 445 kts | 359° |
| 2026-04-27 13:43 | 37.63509 | 29.31789 | 31038 ft | 447 kts | 359° |
| 2026-04-27 13:43 | 37.66617 | 29.31845 | 31399 ft | 446 kts | 359° |
| 2026-04-27 13:43 | 37.69715 | 29.31899 | 31777 ft | 445 kts | 359° |
| 2026-04-27 13:43 | 37.72804 | 29.31952 | 32135 ft | 444 kts | 359° |
| 2026-04-27 13:44 | 37.75891 | 29.32000 | 32498 ft | 443 kts | 359° |
| 2026-04-27 13:44 | 37.78971 | 29.32046 | 32862 ft | 443 kts | 359° |
| 2026-04-27 13:44 | 37.82052 | 29.32096 | 33209 ft | 442 kts | 359° |
| 2026-04-27 13:44 | 37.85125 | 29.32149 | 33561 ft | 442 kts | 359° |
| 2026-04-27 13:45 | 37.87160 | 29.32185 | 33785 ft | 441 kts | 359° |
| 2026-04-27 13:45 | 37.90230 | 29.32240 | 34125 ft | 441 kts | 359° |
| 2026-04-27 13:45 | 37.93293 | 29.32292 | 34423 ft | 440 kts | 359° |
| 2026-04-27 13:45 | 37.96357 | 29.32342 | 34702 ft | 440 kts | 359° |
| 2026-04-27 13:46 | 38.00401 | 29.32742 | 35042 ft | 443 kts | 11° |
| 2026-04-27 13:46 | 38.03327 | 29.33972 | 35313 ft | 446 kts | 23° |
| 2026-04-27 13:46 | 38.05169 | 29.35264 | 35490 ft | 449 kts | 32° |
| 2026-04-27 13:46 | 38.07584 | 29.37791 | 35726 ft | 453 kts | 44° |
| 2026-04-27 13:47 | 38.09515 | 29.40959 | 35949 ft | 457 kts | 58° |
| 2026-04-27 13:47 | 38.10881 | 29.44609 | 36052 ft | 459 kts | 66° |
| 2026-04-27 13:47 | 38.13192 | 29.52098 | 36062 ft | 458 kts | 67° |
| 2026-04-27 13:48 | 38.15485 | 29.59644 | 36066 ft | 458 kts | 67° |
| 2026-04-27 13:48 | 38.17988 | 29.67056 | 36070 ft | 455 kts | 56° |
| 2026-04-27 13:49 | 38.19840 | 29.70285 | 36064 ft | 451 kts | 45° |
| 2026-04-27 13:49 | 38.22118 | 29.72999 | 36069 ft | 447 kts | 34° |
| 2026-04-27 13:49 | 38.27566 | 29.76603 | 36060 ft | 440 kts | 14° |
| 2026-04-27 13:50 | 38.33527 | 29.78199 | 36053 ft | 438 kts | 8° |
| 2026-04-27 13:50 | 38.39512 | 29.79648 | 36061 ft | 438 kts | 8° |
| 2026-04-27 13:51 | 38.45501 | 29.81099 | 36064 ft | 438 kts | 8° |
| 2026-04-27 13:51 | 38.51493 | 29.82571 | 36067 ft | 439 kts | 8° |
| 2026-04-27 13:52 | 38.57482 | 29.84063 | 36086 ft | 439 kts | 8° |
| 2026-04-27 13:52 | 38.63475 | 29.85555 | 36083 ft | 439 kts | 8° |
| 2026-04-27 13:53 | 38.72425 | 29.87770 | 36081 ft | 439 kts | 8° |
| 2026-04-27 13:54 | 38.78421 | 29.89252 | 36089 ft | 439 kts | 8° |
| 2026-04-27 13:54 | 38.84415 | 29.90722 | 36092 ft | 438 kts | 6° |
| 2026-04-27 13:54 | 38.87433 | 29.90906 | 36088 ft | 433 kts | 352° |
| 2026-04-27 13:55 | 38.90348 | 29.90075 | 36088 ft | 428 kts | 339° |
| 2026-04-27 13:55 | 38.95965 | 29.87503 | 36085 ft | 429 kts | 338° |
| 2026-04-27 13:56 | 39.01580 | 29.84891 | 36090 ft | 430 kts | 338° |
| 2026-04-27 13:56 | 39.07206 | 29.82277 | 36093 ft | 430 kts | 338° |
| 2026-04-27 13:57 | 39.12840 | 29.79662 | 36041 ft | 430 kts | 338° |
| 2026-04-27 13:57 | 39.15648 | 29.78356 | 35456 ft | 429 kts | 338° |
| 2026-04-27 13:57 | 39.18459 | 29.77047 | 34762 ft | 430 kts | 338° |
| 2026-04-27 13:57 | 39.21280 | 29.75733 | 34052 ft | 432 kts | 339° |
| 2026-04-27 13:58 | 39.24109 | 29.74415 | 33307 ft | 432 kts | 339° |
| 2026-04-27 13:58 | 39.26928 | 29.73107 | 32727 ft | 428 kts | 339° |
| 2026-04-27 13:58 | 39.29718 | 29.71807 | 32156 ft | 425 kts | 339° |
| 2026-04-27 13:58 | 39.32452 | 29.70533 | 31616 ft | 421 kts | 339° |
| 2026-04-27 13:59 | 39.35195 | 29.69254 | 31085 ft | 418 kts | 339° |
| 2026-04-27 13:59 | 39.37042 | 29.68390 | 30735 ft | 416 kts | 339° |
| 2026-04-27 13:59 | 39.38774 | 29.67615 | 30397 ft | 413 kts | 341° |
| 2026-04-27 13:59 | 39.41490 | 29.66436 | 29812 ft | 411 kts | 340° |
| 2026-04-27 14:00 | 39.44168 | 29.65188 | 29241 ft | 407 kts | 339° |
| 2026-04-27 14:00 | 39.46809 | 29.63908 | 28666 ft | 404 kts | 338° |
| 2026-04-27 14:00 | 39.49428 | 29.62626 | 28111 ft | 401 kts | 338° |
| 2026-04-27 14:00 | 39.52026 | 29.61366 | 27568 ft | 398 kts | 339° |
| 2026-04-27 14:01 | 39.54616 | 29.60126 | 27032 ft | 395 kts | 339° |
| 2026-04-27 14:01 | 39.57186 | 29.58910 | 26510 ft | 392 kts | 339° |
| 2026-04-27 14:01 | 39.59742 | 29.57709 | 25979 ft | 390 kts | 339° |
| 2026-04-27 14:01 | 39.62288 | 29.56519 | 25455 ft | 388 kts | 339° |
| 2026-04-27 14:02 | 39.64818 | 29.55336 | 24941 ft | 386 kts | 339° |
| 2026-04-27 14:02 | 39.67341 | 29.54153 | 24436 ft | 384 kts | 339° |
| 2026-04-27 14:02 | 39.69847 | 29.52977 | 23931 ft | 383 kts | 339° |
| 2026-04-27 14:02 | 39.72347 | 29.51797 | 23398 ft | 381 kts | 339° |
| 2026-04-27 14:03 | 39.74829 | 29.50618 | 22871 ft | 379 kts | 339° |
| 2026-04-27 14:03 | 39.77294 | 29.49452 | 22384 ft | 376 kts | 339° |
| 2026-04-27 14:03 | 39.79741 | 29.48295 | 21924 ft | 372 kts | 339° |
| 2026-04-27 14:03 | 39.82167 | 29.47147 | 21470 ft | 370 kts | 339° |
| 2026-04-27 14:04 | 39.84572 | 29.46006 | 21032 ft | 367 kts | 339° |
| 2026-04-27 14:04 | 39.86956 | 29.44871 | 20602 ft | 364 kts | 339° |
| 2026-04-27 14:04 | 39.89324 | 29.43744 | 20176 ft | 361 kts | 339° |
| 2026-04-27 14:04 | 39.91674 | 29.42627 | 19759 ft | 358 kts | 338° |
| 2026-04-27 14:05 | 39.93977 | 29.41534 | 19361 ft | 356 kts | 339° |
| 2026-04-27 14:05 | 39.96296 | 29.40429 | 18969 ft | 353 kts | 338° |
| 2026-04-27 14:05 | 39.98596 | 29.39335 | 18569 ft | 351 kts | 338° |
| 2026-04-27 14:05 | 40.00884 | 29.38246 | 18120 ft | 348 kts | 338° |
| 2026-04-27 14:06 | 40.03150 | 29.37162 | 17700 ft | 346 kts | 338° |
| 2026-04-27 14:06 | 40.05402 | 29.36082 | 17260 ft | 344 kts | 338° |
| 2026-04-27 14:06 | 40.07641 | 29.35008 | 16816 ft | 342 kts | 338° |
| 2026-04-27 14:06 | 40.09865 | 29.33942 | 16375 ft | 340 kts | 338° |
| 2026-04-27 14:07 | 40.12047 | 29.32895 | 15963 ft | 338 kts | 339° |
| 2026-04-27 14:07 | 40.14250 | 29.31839 | 15572 ft | 336 kts | 339° |
| 2026-04-27 14:07 | 40.16441 | 29.30793 | 15180 ft | 334 kts | 339° |
| 2026-04-27 14:07 | 40.18623 | 29.29755 | 14796 ft | 333 kts | 339° |
| 2026-04-27 14:08 | 40.20793 | 29.28721 | 14415 ft | 331 kts | 339° |
| 2026-04-27 14:08 | 40.22954 | 29.27687 | 14038 ft | 330 kts | 339° |
| 2026-04-27 14:08 | 40.25102 | 29.26654 | 13635 ft | 328 kts | 339° |
| 2026-04-27 14:08 | 40.27240 | 29.25623 | 13218 ft | 326 kts | 339° |
| 2026-04-27 14:09 | 40.29360 | 29.24601 | 12818 ft | 324 kts | 339° |
| 2026-04-27 14:09 | 40.31470 | 29.23583 | 12429 ft | 322 kts | 339° |
| 2026-04-27 14:09 | 40.33569 | 29.22572 | 12034 ft | 320 kts | 339° |
| 2026-04-27 14:09 | 40.35652 | 29.21573 | 11664 ft | 318 kts | 339° |
| 2026-04-27 14:10 | 40.37719 | 29.20579 | 11286 ft | 316 kts | 339° |
| 2026-04-27 14:10 | 40.39749 | 29.19603 | 10922 ft | 314 kts | 339° |
| 2026-04-27 14:10 | 40.41790 | 29.18617 | 10561 ft | 311 kts | 338° |
| 2026-04-27 14:10 | 40.43814 | 29.17633 | 10201 ft | 309 kts | 338° |
| 2026-04-27 14:11 | 40.45810 | 29.16664 | 10010 ft | 300 kts | 338° |
| 2026-04-27 14:11 | 40.47738 | 29.15732 | 9885 ft | 290 kts | 338° |
| 2026-04-27 14:11 | 40.49606 | 29.14830 | 9655 ft | 283 kts | 338° |
| 2026-04-27 14:11 | 40.51446 | 29.13939 | 9336 ft | 281 kts | 338° |
| 2026-04-27 14:12 | 40.53276 | 29.13051 | 8973 ft | 280 kts | 338° |
| 2026-04-27 14:12 | 40.55099 | 29.12161 | 8602 ft | 279 kts | 338° |
| 2026-04-27 14:12 | 40.56867 | 29.11298 | 8223 ft | 278 kts | 339° |
| 2026-04-27 14:12 | 40.58680 | 29.10420 | 7840 ft | 277 kts | 339° |
| 2026-04-27 14:13 | 40.60485 | 29.09547 | 7466 ft | 276 kts | 339° |
| 2026-04-27 14:13 | 40.62279 | 29.08676 | 7181 ft | 275 kts | 339° |
| 2026-04-27 14:13 | 40.64076 | 29.07801 | 6918 ft | 275 kts | 339° |
| 2026-04-27 14:13 | 40.65868 | 29.06932 | 6657 ft | 274 kts | 339° |
| 2026-04-27 14:14 | 40.67656 | 29.06064 | 6387 ft | 273 kts | 340° |
| 2026-04-27 14:14 | 40.69437 | 29.05196 | 6095 ft | 272 kts | 340° |
| 2026-04-27 14:14 | 40.71193 | 29.04337 | 5809 ft | 266 kts | 340° |
| 2026-04-27 14:14 | 40.72906 | 29.03497 | 5534 ft | 259 kts | 341° |
| 2026-04-27 14:15 | 40.74560 | 29.02686 | 5260 ft | 247 kts | 343° |
| 2026-04-27 14:15 | 40.76173 | 29.02341 | 4981 ft | 227 kts | 11° |
| 2026-04-27 14:15 | 40.77581 | 29.03076 | 4705 ft | 214 kts | 41° |
| 2026-04-27 14:15 | 40.78502 | 29.04531 | 4426 ft | 203 kts | 59° |
| 2026-04-27 14:16 | 40.79262 | 29.06057 | 4214 ft | 193 kts | 56° |
| 2026-04-27 14:16 | 40.79975 | 29.07497 | 4089 ft | 183 kts | 62° |
| 2026-04-27 14:16 | 40.80565 | 29.08933 | 3884 ft | 174 kts | 64° |
| 2026-04-27 14:16 | 40.81096 | 29.10318 | 3652 ft | 169 kts | 65° |
| 2026-04-27 14:17 | 40.81612 | 29.11693 | 3430 ft | 165 kts | 65° |
| 2026-04-27 14:17 | 40.82113 | 29.13038 | 3206 ft | 161 kts | 65° |
| 2026-04-27 14:17 | 40.82599 | 29.14346 | 2992 ft | 157 kts | 65° |
| 2026-04-27 14:17 | 40.83072 | 29.15621 | 2781 ft | 152 kts | 65° |
| 2026-04-27 14:18 | 40.83525 | 29.16843 | 2586 ft | 146 kts | 65° |
| 2026-04-27 14:18 | 40.83963 | 29.18024 | 2395 ft | 139 kts | 64° |
| 2026-04-27 14:18 | 40.84368 | 29.19119 | 2216 ft | 129 kts | 63° |
| 2026-04-27 14:18 | 40.84755 | 29.20164 | 2037 ft | 125 kts | 62° |
| 2026-04-27 14:19 | 40.85137 | 29.21194 | 1862 ft | 124 kts | 62° |
| 2026-04-27 14:19 | 40.85516 | 29.22222 | 1692 ft | 125 kts | 63° |
| 2026-04-27 14:19 | 40.85895 | 29.23244 | 1518 ft | 123 kts | 63° |
| 2026-04-27 14:19 | 40.86270 | 29.24260 | 1346 ft | 123 kts | 62° |
| 2026-04-27 14:20 | 40.86646 | 29.25276 | 1174 ft | 123 kts | 62° |
| 2026-04-27 14:20 | 40.87022 | 29.26294 | 979 ft | 124 kts | 61° |
| 2026-04-27 14:20 | 40.87398 | 29.27323 | 798 ft | 124 kts | 60° |
| 2026-04-27 14:20 | 40.87767 | 29.28337 | 633 ft | 122 kts | 59° |
| 2026-04-27 14:21 | 40.88142 | 29.29343 | 450 ft | 121 kts | 57° |
| 2026-04-27 14:21 | 40.88513 | 29.30327 | 316 ft | 120 kts | 60° |
| 2026-04-27 14:21 | 40.88850 | 29.31233 | 302 ft | 90 kts | 64° |
| 2026-04-27 14:21 | 40.89050 | 29.31785 | 308 ft | 51 kts | 65° |
| 2026-04-27 14:22 | 40.89168 | 29.32106 | 305 ft | 31 kts | 63° |
| 2026-04-27 14:22 | 40.89268 | 29.32322 | 304 ft | 25 kts | 50° |
| 2026-04-27 14:22 | 40.89390 | 29.32451 | 307 ft | 19 kts | 34° |
| 2026-04-27 14:22 | 40.89467 | 29.32504 | 307 ft | 11 kts | 358° |
| 2026-04-27 14:23 | 40.89497 | 29.32419 | 309 ft | 11 kts | 278° |
| 2026-04-27 14:23 | 40.89544 | 29.32355 | 307 ft | 10 kts | 342° |
| 2026-04-27 14:23 | 40.89617 | 29.32332 | 306 ft | 12 kts | 335° |
| 2026-04-27 14:23 | 40.89702 | 29.32278 | 306 ft | 15 kts | 335° |
| 2026-04-27 14:24 | 40.89792 | 29.32218 | 309 ft | 14 kts | 334° |
| 2026-04-27 14:24 | 40.89879 | 29.32162 | 312 ft | 14 kts | 334° |
| 2026-04-27 14:24 | 40.89967 | 29.32107 | 315 ft | 14 kts | 334° |
| 2026-04-27 14:24 | 40.90045 | 29.32056 | 320 ft | 11 kts | 338° |
| 2026-04-27 14:25 | 40.90106 | 29.32098 | 320 ft | 11 kts | 63° |
| 2026-04-27 14:25 | 40.90143 | 29.32198 | 321 ft | 13 kts | 64° |
| 2026-04-27 14:25 | 40.90183 | 29.32308 | 320 ft | 14 kts | 64° |
| 2026-04-27 14:25 | 40.90226 | 29.32424 | 320 ft | 14 kts | 64° |
| 2026-04-27 14:26 | 40.90269 | 29.32542 | 319 ft | 15 kts | 64° |
| 2026-04-27 14:26 | 40.90353 | 29.32569 | 321 ft | 15 kts | 336° |
| 2026-04-27 14:26 | 40.90453 | 29.32504 | 319 ft | 17 kts | 334° |
| 2026-04-27 14:26 | 40.90563 | 29.32434 | 321 ft | 16 kts | 333° |
| 2026-04-27 14:27 | 40.90631 | 29.32339 | 319 ft | 15 kts | 315° |
| 2026-04-27 14:27 | 40.90719 | 29.32271 | 321 ft | 15 kts | 323° |
| 2026-04-27 14:27 | 40.90806 | 29.32194 | 321 ft | 12 kts | 334° |
| 2026-04-27 14:27 | 40.90833 | 29.32177 | 321 ft | 0 kts | 334° |